This is the latest recevied weather packets stored in our database for station/object N5LSN. If no packets are shown the sender has not sent any weather packets the latest 10 day(s).
| Time | Temp. | Humidity | Pressure | Rain* | Wind** | Luminosity | Snow |
|---|---|---|---|---|---|---|---|
| 1777496089 | 17.78° C | 83% | 1015 hPa | 0 mm | - | 53 W/m² | - |
| 1777495785 | 17.78° C | 81% | 1014.2 hPa | 0 mm | - | 163 W/m² | - |
| 1777495481 | 17.78° C | 83% | 1014.5 hPa | 0 mm | - | 170 W/m² | - |
| 1777495177 | 17.78° C | 82% | 1014.7 hPa | 0 mm | - | 187 W/m² | - |
| 1777494875 | 17.78° C | 82% | 1014.7 hPa | 0 mm | - | 177 W/m² | - |
| 1777494572 | 18.33° C | 81% | 1014.8 hPa | 0 mm | - | 214 W/m² | - |
| 1777494269 | 18.33° C | 82% | 1014.9 hPa | 0 mm | - | 297 W/m² | - |
| 1777493966 | 18.33° C | 83% | 1014.9 hPa | 0 mm | - | 318 W/m² | - |
| 1777493664 | 18.33° C | 82% | 1014.9 hPa | 0 mm | - | 220 W/m² | - |
| 1777493361 | 17.78° C | 83% | 1015.4 hPa | 0 mm | - | 215 W/m² | - |
| 1777493057 | 18.33° C | 82% | 1015.2 hPa | 0 mm | - | 207 W/m² | - |
| 1777492754 | 18.33° C | 83% | 1015.3 hPa | 0 mm | - | 242 W/m² | - |
| 1777492449 | 18.33° C | 82% | 1015.4 hPa | 0 mm | - | 257 W/m² | - |
| 1777492147 | 18.89° C | 82% | 1015.5 hPa | 0 mm | - | 329 W/m² | - |
| 1777491844 | 18.89° C | 81% | 1015.5 hPa | 0 mm | - | 398 W/m² | - |
| 1777491540 | 18.89° C | 81% | 1015.5 hPa | 0 mm | - | 471 W/m² | - |
| 1777491237 | 18.89° C | 81% | 1015.6 hPa | 0 mm | - | 474 W/m² | - |
| 1777490933 | 18.33° C | 83% | 1015.7 hPa | 0 mm | - | 386 W/m² | - |
| 1777490629 | 18.33° C | 82% | 1015.8 hPa | 0 mm | - | 283 W/m² | - |
| 1777490325 | 18.33° C | 81% | 1015.6 hPa | 0 mm | - | 197 W/m² | - |
| 1777490023 | 18.33° C | 82% | 1015.9 hPa | 0 mm | - | 188 W/m² | - |
| 1777489721 | 18.89° C | 80% | 1016.1 hPa | 0 mm | - | 265 W/m² | - |
| 1777489418 | 18.89° C | 79% | 1016 hPa | 0 mm | - | 383 W/m² | - |
| 1777489114 | 18.89° C | 82% | 1016.3 hPa | 0 mm | - | 369 W/m² | - |
| 1777488812 | 18.33° C | 81% | 1016.4 hPa | 0 mm | - | 258 W/m² | - |
* Rain latest hour (hover to see other rain measurements)
** Current wind speed in m/s (hover to see current wind gust speed)